sensor_id;sensor_type;location;lat;lon;timestamp;temperature;humidity
38488;DHT22;57384;51.986;4.458;2023-05-24T00:01:36;11.90;47.90
38488;DHT22;57384;51.986;4.458;2023-05-24T00:04:20;11.90;48.00
38488;DHT22;57384;51.986;4.458;2023-05-24T00:07:05;11.80;48.00
38488;DHT22;57384;51.986;4.458;2023-05-24T00:09:49;11.80;48.10
38488;DHT22;57384;51.986;4.458;2023-05-24T00:12:33;11.70;48.10
38488;DHT22;57384;51.986;4.458;2023-05-24T00:15:17;11.70;48.10
38488;DHT22;57384;51.986;4.458;2023-05-24T00:18:02;11.70;48.20
38488;DHT22;57384;51.986;4.458;2023-05-24T00:20:46;11.60;48.20
38488;DHT22;57384;51.986;4.458;2023-05-24T00:23:30;11.60;48.20
38488;DHT22;57384;51.986;4.458;2023-05-24T00:26:14;11.50;48.20
38488;DHT22;57384;51.986;4.458;2023-05-24T00:28:58;11.50;48.30
38488;DHT22;57384;51.986;4.458;2023-05-24T00:31:43;11.50;48.40
38488;DHT22;57384;51.986;4.458;2023-05-24T00:34:27;11.50;48.40
38488;DHT22;57384;51.986;4.458;2023-05-24T00:37:11;11.40;48.40
38488;DHT22;57384;51.986;4.458;2023-05-24T00:39:55;11.40;48.50
38488;DHT22;57384;51.986;4.458;2023-05-24T00:42:40;11.30;48.50
38488;DHT22;57384;51.986;4.458;2023-05-24T00:45:24;11.40;48.60
38488;DHT22;57384;51.986;4.458;2023-05-24T00:48:08;11.30;48.60
38488;DHT22;57384;51.986;4.458;2023-05-24T00:50:52;11.20;48.60
38488;DHT22;57384;51.986;4.458;2023-05-24T00:53:37;11.20;48.70
38488;DHT22;57384;51.986;4.458;2023-05-24T00:56:21;11.20;48.70
38488;DHT22;57384;51.986;4.458;2023-05-24T00:59:05;11.20;48.80
38488;DHT22;57384;51.986;4.458;2023-05-24T01:01:49;11.10;48.80
38488;DHT22;57384;51.986;4.458;2023-05-24T01:04:33;11.10;48.90
38488;DHT22;57384;51.986;4.458;2023-05-24T01:07:23;11.10;48.90
38488;DHT22;57384;51.986;4.458;2023-05-24T01:10:16;11.00;48.90
38488;DHT22;57384;51.986;4.458;2023-05-24T01:16:00;11.00;49.10
38488;DHT22;57384;51.986;4.458;2023-05-24T01:18:55;10.90;49.00
38488;DHT22;57384;51.986;4.458;2023-05-24T01:21:54;10.90;49.10
38488;DHT22;57384;51.986;4.458;2023-05-24T01:24:52;10.90;49.20
38488;DHT22;57384;51.986;4.458;2023-05-24T01:27:41;10.80;49.20
38488;DHT22;57384;51.986;4.458;2023-05-24T01:30:26;10.80;49.20
38488;DHT22;57384;51.986;4.458;2023-05-24T01:33:10;10.80;49.30
38488;DHT22;57384;51.986;4.458;2023-05-24T01:35:54;10.80;49.40
38488;DHT22;57384;51.986;4.458;2023-05-24T01:38:38;10.70;49.40
38488;DHT22;57384;51.986;4.458;2023-05-24T01:50:34;10.60;49.50
38488;DHT22;57384;51.986;4.458;2023-05-24T01:53:19;10.60;49.60
38488;DHT22;57384;51.986;4.458;2023-05-24T01:56:05;10.60;49.70
38488;DHT22;57384;51.986;4.458;2023-05-24T01:58:49;10.60;49.70
38488;DHT22;57384;51.986;4.458;2023-05-24T02:01:34;10.50;49.70
38488;DHT22;57384;51.986;4.458;2023-05-24T02:04:18;10.50;49.70
38488;DHT22;57384;51.986;4.458;2023-05-24T02:07:02;10.50;49.80
38488;DHT22;57384;51.986;4.458;2023-05-24T02:09:46;10.50;49.80
38488;DHT22;57384;51.986;4.458;2023-05-24T02:12:31;10.50;49.90
38488;DHT22;57384;51.986;4.458;2023-05-24T02:15:15;10.40;49.90
38488;DHT22;57384;51.986;4.458;2023-05-24T02:18:00;10.40;50.00
38488;DHT22;57384;51.986;4.458;2023-05-24T02:20:44;10.40;50.00
38488;DHT22;57384;51.986;4.458;2023-05-24T02:23:28;10.30;50.00
38488;DHT22;57384;51.986;4.458;2023-05-24T02:26:12;10.30;50.00
38488;DHT22;57384;51.986;4.458;2023-05-24T02:28:56;10.30;50.10
38488;DHT22;57384;51.986;4.458;2023-05-24T02:31:41;10.20;50.10
38488;DHT22;57384;51.986;4.458;2023-05-24T02:34:25;10.20;50.10
38488;DHT22;57384;51.986;4.458;2023-05-24T02:37:09;10.30;50.20
38488;DHT22;57384;51.986;4.458;2023-05-24T02:39:56;10.20;50.20
38488;DHT22;57384;51.986;4.458;2023-05-24T02:42:40;10.20;50.20
38488;DHT22;57384;51.986;4.458;2023-05-24T02:45:25;10.20;50.30
38488;DHT22;57384;51.986;4.458;2023-05-24T02:48:09;10.10;50.30
38488;DHT22;57384;51.986;4.458;2023-05-24T02:50:53;10.10;50.40
38488;DHT22;57384;51.986;4.458;2023-05-24T02:53:37;10.10;50.40
38488;DHT22;57384;51.986;4.458;2023-05-24T02:56:22;10.10;50.40
38488;DHT22;57384;51.986;4.458;2023-05-24T02:59:06;10.00;50.40
38488;DHT22;57384;51.986;4.458;2023-05-24T03:01:50;10.00;50.50
38488;DHT22;57384;51.986;4.458;2023-05-24T03:04:37;10.00;50.50
38488;DHT22;57384;51.986;4.458;2023-05-24T03:07:22;10.00;50.50
38488;DHT22;57384;51.986;4.458;2023-05-24T03:10:06;10.00;50.60
38488;DHT22;57384;51.986;4.458;2023-05-24T03:12:50;9.90;50.60
38488;DHT22;57384;51.986;4.458;2023-05-24T03:15:34;10.00;50.60
38488;DHT22;57384;51.986;4.458;2023-05-24T03:18:19;9.90;50.60
38488;DHT22;57384;51.986;4.458;2023-05-24T03:21:03;9.90;50.70
38488;DHT22;57384;51.986;4.458;2023-05-24T03:23:47;9.90;50.70
38488;DHT22;57384;51.986;4.458;2023-05-24T03:26:31;9.80;50.70
38488;DHT22;57384;51.986;4.458;2023-05-24T03:29:15;9.80;50.70
38488;DHT22;57384;51.986;4.458;2023-05-24T03:32:00;9.80;50.80
38488;DHT22;57384;51.986;4.458;2023-05-24T03:34:44;9.80;51.40
38488;DHT22;57384;51.986;4.458;2023-05-24T03:37:28;9.80;50.90
38488;DHT22;57384;51.986;4.458;2023-05-24T03:40:13;9.80;50.90
38488;DHT22;57384;51.986;4.458;2023-05-24T03:42:57;9.70;50.90
38488;DHT22;57384;51.986;4.458;2023-05-24T03:45:42;9.70;50.90
38488;DHT22;57384;51.986;4.458;2023-05-24T03:48:26;9.70;50.90
38488;DHT22;57384;51.986;4.458;2023-05-24T03:51:10;9.70;50.90
38488;DHT22;57384;51.986;4.458;2023-05-24T03:53:55;9.70;51.00
38488;DHT22;57384;51.986;4.458;2023-05-24T03:56:39;9.80;51.10
38488;DHT22;57384;51.986;4.458;2023-05-24T03:59:26;9.70;51.00
38488;DHT22;57384;51.986;4.458;2023-05-24T04:02:10;9.70;51.00
38488;DHT22;57384;51.986;4.458;2023-05-24T04:04:54;9.60;51.00
38488;DHT22;57384;51.986;4.458;2023-05-24T04:07:39;9.60;51.00
38488;DHT22;57384;51.986;4.458;2023-05-24T04:10:23;9.60;51.10
38488;DHT22;57384;51.986;4.458;2023-05-24T04:13:07;9.60;51.10
38488;DHT22;57384;51.986;4.458;2023-05-24T04:15:51;9.60;51.10
38488;DHT22;57384;51.986;4.458;2023-05-24T04:18:35;9.60;51.20
38488;DHT22;57384;51.986;4.458;2023-05-24T04:21:20;9.60;51.20
38488;DHT22;57384;51.986;4.458;2023-05-24T04:24:04;9.60;51.20
38488;DHT22;57384;51.986;4.458;2023-05-24T04:26:48;9.70;51.30
38488;DHT22;57384;51.986;4.458;2023-05-24T04:29:33;9.60;51.20
38488;DHT22;57384;51.986;4.458;2023-05-24T04:32:17;9.60;51.20
38488;DHT22;57384;51.986;4.458;2023-05-24T04:35:01;9.60;51.20
38488;DHT22;57384;51.986;4.458;2023-05-24T04:37:45;9.70;51.20
38488;DHT22;57384;51.986;4.458;2023-05-24T04:40:29;9.70;51.20
38488;DHT22;57384;51.986;4.458;2023-05-24T04:43:14;9.80;51.20
38488;DHT22;57384;51.986;4.458;2023-05-24T04:45:58;9.80;51.10
38488;DHT22;57384;51.986;4.458;2023-05-24T04:48:42;9.80;51.00
38488;DHT22;57384;51.986;4.458;2023-05-24T04:51:26;9.90;51.00
38488;DHT22;57384;51.986;4.458;2023-05-24T04:54:10;9.90;51.00
38488;DHT22;57384;51.986;4.458;2023-05-24T04:56:55;10.00;51.00
38488;DHT22;57384;51.986;4.458;2023-05-24T04:59:39;10.10;51.00
38488;DHT22;57384;51.986;4.458;2023-05-24T05:02:23;10.10;50.90
38488;DHT22;57384;51.986;4.458;2023-05-24T05:05:08;10.10;50.90
38488;DHT22;57384;51.986;4.458;2023-05-24T05:07:52;10.20;50.90
38488;DHT22;57384;51.986;4.458;2023-05-24T05:10:36;10.30;50.80
38488;DHT22;57384;51.986;4.458;2023-05-24T05:13:20;10.40;50.80
38488;DHT22;57384;51.986;4.458;2023-05-24T05:16:05;10.50;50.80
38488;DHT22;57384;51.986;4.458;2023-05-24T05:18:49;10.50;50.80
38488;DHT22;57384;51.986;4.458;2023-05-24T05:21:33;10.60;50.80
38488;DHT22;57384;51.986;4.458;2023-05-24T05:24:17;10.60;50.80
38488;DHT22;57384;51.986;4.458;2023-05-24T05:27:02;10.70;50.80
38488;DHT22;57384;51.986;4.458;2023-05-24T05:29:46;10.80;50.80
38488;DHT22;57384;51.986;4.458;2023-05-24T05:32:30;10.90;50.80
38488;DHT22;57384;51.986;4.458;2023-05-24T05:35:14;10.90;50.80
38488;DHT22;57384;51.986;4.458;2023-05-24T05:37:59;11.00;50.90
38488;DHT22;57384;51.986;4.458;2023-05-24T05:40:43;11.10;50.90
38488;DHT22;57384;51.986;4.458;2023-05-24T05:43:27;11.20;51.00
38488;DHT22;57384;51.986;4.458;2023-05-24T05:46:11;11.20;50.90
38488;DHT22;57384;51.986;4.458;2023-05-24T05:48:55;11.40;51.00
38488;DHT22;57384;51.986;4.458;2023-05-24T05:51:40;11.40;51.00
38488;DHT22;57384;51.986;4.458;2023-05-24T05:54:24;11.50;51.00
38488;DHT22;57384;51.986;4.458;2023-05-24T05:57:08;11.60;51.00
38488;DHT22;57384;51.986;4.458;2023-05-24T05:59:52;11.70;51.10
38488;DHT22;57384;51.986;4.458;2023-05-24T06:02:37;11.80;51.10
38488;DHT22;57384;51.986;4.458;2023-05-24T06:05:21;11.80;51.10
38488;DHT22;57384;51.986;4.458;2023-05-24T06:08:05;11.90;51.10
38488;DHT22;57384;51.986;4.458;2023-05-24T06:10:49;12.00;51.20
38488;DHT22;57384;51.986;4.458;2023-05-24T06:13:33;12.10;51.20
38488;DHT22;57384;51.986;4.458;2023-05-24T06:16:18;12.20;51.20
38488;DHT22;57384;51.986;4.458;2023-05-24T06:19:02;12.30;51.30
38488;DHT22;57384;51.986;4.458;2023-05-24T06:21:46;12.40;51.40
38488;DHT22;57384;51.986;4.458;2023-05-24T06:24:31;12.50;51.40
38488;DHT22;57384;51.986;4.458;2023-05-24T06:27:15;12.60;51.40
38488;DHT22;57384;51.986;4.458;2023-05-24T06:29:59;12.60;51.50
38488;DHT22;57384;51.986;4.458;2023-05-24T06:32:43;12.70;51.50
38488;DHT22;57384;51.986;4.458;2023-05-24T06:35:27;12.80;51.60
38488;DHT22;57384;51.986;4.458;2023-05-24T06:38:11;12.90;51.80
38488;DHT22;57384;51.986;4.458;2023-05-24T06:40:56;13.00;51.80
38488;DHT22;57384;51.986;4.458;2023-05-24T06:43:40;13.00;51.90
38488;DHT22;57384;51.986;4.458;2023-05-24T06:46:24;13.10;52.00
38488;DHT22;57384;51.986;4.458;2023-05-24T06:49:10;13.20;52.10
38488;DHT22;57384;51.986;4.458;2023-05-24T06:51:54;13.30;52.20
38488;DHT22;57384;51.986;4.458;2023-05-24T06:54:38;13.40;52.20
38488;DHT22;57384;51.986;4.458;2023-05-24T06:57:23;13.50;52.10
38488;DHT22;57384;51.986;4.458;2023-05-24T07:00:07;13.60;52.20
38488;DHT22;57384;51.986;4.458;2023-05-24T07:02:51;13.60;52.20
38488;DHT22;57384;51.986;4.458;2023-05-24T07:05:35;13.70;52.20
38488;DHT22;57384;51.986;4.458;2023-05-24T07:08:20;13.80;52.20
38488;DHT22;57384;51.986;4.458;2023-05-24T07:11:04;13.90;52.20
38488;DHT22;57384;51.986;4.458;2023-05-24T07:13:48;14.00;52.20
38488;DHT22;57384;51.986;4.458;2023-05-24T07:16:32;14.10;52.20
38488;DHT22;57384;51.986;4.458;2023-05-24T07:19:17;14.20;52.20
38488;DHT22;57384;51.986;4.458;2023-05-24T07:22:01;14.30;52.10
38488;DHT22;57384;51.986;4.458;2023-05-24T07:24:45;14.40;52.00
38488;DHT22;57384;51.986;4.458;2023-05-24T07:27:29;14.50;52.00
38488;DHT22;57384;51.986;4.458;2023-05-24T07:30:13;14.70;52.00
38488;DHT22;57384;51.986;4.458;2023-05-24T07:32:57;14.80;52.50
38488;DHT22;57384;51.986;4.458;2023-05-24T07:35:42;14.90;52.00
38488;DHT22;57384;51.986;4.458;2023-05-24T07:38:26;15.00;52.00
38488;DHT22;57384;51.986;4.458;2023-05-24T07:41:12;15.20;52.00
38488;DHT22;57384;51.986;4.458;2023-05-24T07:43:56;15.30;51.90
38488;DHT22;57384;51.986;4.458;2023-05-24T07:46:40;15.40;51.80
38488;DHT22;57384;51.986;4.458;2023-05-24T07:49:24;15.60;51.80
38488;DHT22;57384;51.986;4.458;2023-05-24T07:52:08;15.80;51.80
38488;DHT22;57384;51.986;4.458;2023-05-24T07:54:53;15.90;51.80
38488;DHT22;57384;51.986;4.458;2023-05-24T07:57:37;16.10;51.70
38488;DHT22;57384;51.986;4.458;2023-05-24T08:00:21;16.30;51.70
38488;DHT22;57384;51.986;4.458;2023-05-24T08:03:05;16.60;51.80
38488;DHT22;57384;51.986;4.458;2023-05-24T08:05:50;16.80;51.80
38488;DHT22;57384;51.986;4.458;2023-05-24T08:08:34;17.00;51.80
38488;DHT22;57384;51.986;4.458;2023-05-24T08:11:18;17.20;51.90
38488;DHT22;57384;51.986;4.458;2023-05-24T08:14:03;17.40;51.90
38488;DHT22;57384;51.986;4.458;2023-05-24T08:16:47;17.50;51.90
38488;DHT22;57384;51.986;4.458;2023-05-24T08:19:31;17.70;52.00
38488;DHT22;57384;51.986;4.458;2023-05-24T08:22:15;17.90;52.00
38488;DHT22;57384;51.986;4.458;2023-05-24T08:25:00;18.10;52.20
38488;DHT22;57384;51.986;4.458;2023-05-24T08:27:44;18.20;52.20
38488;DHT22;57384;51.986;4.458;2023-05-24T08:30:28;18.40;52.20
38488;DHT22;57384;51.986;4.458;2023-05-24T08:33:12;18.60;52.20
38488;DHT22;57384;51.986;4.458;2023-05-24T08:35:57;18.70;52.20
38488;DHT22;57384;51.986;4.458;2023-05-24T08:38:41;18.90;52.20
38488;DHT22;57384;51.986;4.458;2023-05-24T08:41:25;19.00;52.30
38488;DHT22;57384;51.986;4.458;2023-05-24T08:44:09;19.20;52.30
38488;DHT22;57384;51.986;4.458;2023-05-24T08:46:53;19.40;52.40
38488;DHT22;57384;51.986;4.458;2023-05-24T08:49:38;19.70;52.50
38488;DHT22;57384;51.986;4.458;2023-05-24T08:52:23;19.80;52.40
38488;DHT22;57384;51.986;4.458;2023-05-24T08:55:09;20.10;52.50
38488;DHT22;57384;51.986;4.458;2023-05-24T08:57:54;20.30;52.40
38488;DHT22;57384;51.986;4.458;2023-05-24T09:00:38;20.50;52.40
38488;DHT22;57384;51.986;4.458;2023-05-24T09:03:22;20.70;52.40
38488;DHT22;57384;51.986;4.458;2023-05-24T09:06:07;21.00;52.50
38488;DHT22;57384;51.986;4.458;2023-05-24T09:08:51;21.20;52.50
38488;DHT22;57384;51.986;4.458;2023-05-24T09:11:36;21.40;52.50
38488;DHT22;57384;51.986;4.458;2023-05-24T09:14:20;21.60;52.50
38488;DHT22;57384;51.986;4.458;2023-05-24T09:17:05;21.90;52.60
38488;DHT22;57384;51.986;4.458;2023-05-24T09:19:50;22.10;52.70
38488;DHT22;57384;51.986;4.458;2023-05-24T09:22:35;22.30;52.70
38488;DHT22;57384;51.986;4.458;2023-05-24T09:25:19;22.50;52.60
38488;DHT22;57384;51.986;4.458;2023-05-24T09:28:07;22.70;52.60
38488;DHT22;57384;51.986;4.458;2023-05-24T09:31:00;22.90;52.60
38488;DHT22;57384;51.986;4.458;2023-05-24T09:33:45;23.10;52.60
38488;DHT22;57384;51.986;4.458;2023-05-24T09:36:31;23.40;52.60
38488;DHT22;57384;51.986;4.458;2023-05-24T09:39:17;23.60;52.50
38488;DHT22;57384;51.986;4.458;2023-05-24T09:42:01;23.70;52.40
38488;DHT22;57384;51.986;4.458;2023-05-24T09:44:46;23.90;52.30
38488;DHT22;57384;51.986;4.458;2023-05-24T09:47:30;24.10;52.30
38488;DHT22;57384;51.986;4.458;2023-05-24T09:50:15;24.30;52.20
38488;DHT22;57384;51.986;4.458;2023-05-24T09:53:01;24.50;52.10
38488;DHT22;57384;51.986;4.458;2023-05-24T09:55:45;24.70;52.00
38488;DHT22;57384;51.986;4.458;2023-05-24T09:58:30;24.80;51.90
38488;DHT22;57384;51.986;4.458;2023-05-24T10:01:14;25.00;51.90
38488;DHT22;57384;51.986;4.458;2023-05-24T10:03:58;25.10;51.80
38488;DHT22;57384;51.986;4.458;2023-05-24T10:06:42;25.20;51.70
38488;DHT22;57384;51.986;4.458;2023-05-24T10:09:30;25.40;51.70
38488;DHT22;57384;51.986;4.458;2023-05-24T10:12:14;25.50;51.60
38488;DHT22;57384;51.986;4.458;2023-05-24T10:14:58;25.60;51.40
38488;DHT22;57384;51.986;4.458;2023-05-24T10:17:43;25.70;51.40
38488;DHT22;57384;51.986;4.458;2023-05-24T10:20:27;25.80;51.20
38488;DHT22;57384;51.986;4.458;2023-05-24T10:23:13;25.90;51.00
38488;DHT22;57384;51.986;4.458;2023-05-24T10:26:07;26.10;50.90
38488;DHT22;57384;51.986;4.458;2023-05-24T10:28:54;26.20;50.70
38488;DHT22;57384;51.986;4.458;2023-05-24T10:31:39;26.30;50.50
38488;DHT22;57384;51.986;4.458;2023-05-24T10:34:24;26.40;50.30
38488;DHT22;57384;51.986;4.458;2023-05-24T10:37:08;26.60;50.20
38488;DHT22;57384;51.986;4.458;2023-05-24T10:39:52;26.60;50.00
38488;DHT22;57384;51.986;4.458;2023-05-24T10:42:37;26.70;49.80
38488;DHT22;57384;51.986;4.458;2023-05-24T10:50:56;27.00;49.30
38488;DHT22;57384;51.986;4.458;2023-05-24T10:53:43;27.20;49.20
38488;DHT22;57384;51.986;4.458;2023-05-24T10:56:27;27.30;49.00
38488;DHT22;57384;51.986;4.458;2023-05-24T10:59:21;27.40;48.80
38488;DHT22;57384;51.986;4.458;2023-05-24T11:02:06;27.50;48.60
38488;DHT22;57384;51.986;4.458;2023-05-24T11:04:51;27.60;48.40
38488;DHT22;57384;51.986;4.458;2023-05-24T11:07:39;27.60;48.10
38488;DHT22;57384;51.986;4.458;2023-05-24T11:10:33;27.70;48.10
38488;DHT22;57384;51.986;4.458;2023-05-24T11:13:18;27.80;47.90
38488;DHT22;57384;51.986;4.458;2023-05-24T11:16:02;27.90;47.80
38488;DHT22;57384;51.986;4.458;2023-05-24T11:18:53;28.00;47.70
38488;DHT22;57384;51.986;4.458;2023-05-24T11:21:38;28.10;47.50
38488;DHT22;57384;51.986;4.458;2023-05-24T11:24:23;28.20;47.50
38488;DHT22;57384;51.986;4.458;2023-05-24T11:27:08;28.30;47.30
38488;DHT22;57384;51.986;4.458;2023-05-24T11:29:53;28.40;47.20
38488;DHT22;57384;51.986;4.458;2023-05-24T11:32:37;28.50;47.20
38488;DHT22;57384;51.986;4.458;2023-05-24T11:35:22;28.60;47.00
38488;DHT22;57384;51.986;4.458;2023-05-24T11:38:09;28.70;46.90
38488;DHT22;57384;51.986;4.458;2023-05-24T11:40:54;28.80;46.80
38488;DHT22;57384;51.986;4.458;2023-05-24T11:43:40;28.90;46.80
38488;DHT22;57384;51.986;4.458;2023-05-24T11:46:25;29.00;46.60
38488;DHT22;57384;51.986;4.458;2023-05-24T11:49:13;29.10;46.40
38488;DHT22;57384;51.986;4.458;2023-05-24T11:51:57;29.30;46.30
38488;DHT22;57384;51.986;4.458;2023-05-24T11:54:42;29.40;46.10
38488;DHT22;57384;51.986;4.458;2023-05-24T11:57:28;29.50;46.00
38488;DHT22;57384;51.986;4.458;2023-05-24T12:00:13;29.60;45.80
38488;DHT22;57384;51.986;4.458;2023-05-24T12:02:57;29.90;45.80
38488;DHT22;57384;51.986;4.458;2023-05-24T12:05:42;29.90;45.50
38488;DHT22;57384;51.986;4.458;2023-05-24T12:08:26;30.10;45.40
38488;DHT22;57384;51.986;4.458;2023-05-24T12:11:10;30.30;45.20
38488;DHT22;57384;51.986;4.458;2023-05-24T12:13:56;30.40;44.80
38488;DHT22;57384;51.986;4.458;2023-05-24T12:16:43;30.60;44.50
38488;DHT22;57384;51.986;4.458;2023-05-24T12:19:28;30.70;44.30
38488;DHT22;57384;51.986;4.458;2023-05-24T12:22:12;30.80;43.90
38488;DHT22;57384;51.986;4.458;2023-05-24T12:24:57;31.00;43.60
38488;DHT22;57384;51.986;4.458;2023-05-24T12:27:44;31.10;43.40
38488;DHT22;57384;51.986;4.458;2023-05-24T12:30:28;31.20;43.20
38488;DHT22;57384;51.986;4.458;2023-05-24T12:33:13;31.30;43.00
38488;DHT22;57384;51.986;4.458;2023-05-24T12:35:58;31.40;42.60
38488;DHT22;57384;51.986;4.458;2023-05-24T12:38:42;31.50;42.40
38488;DHT22;57384;51.986;4.458;2023-05-24T12:41:27;31.50;42.10
38488;DHT22;57384;51.986;4.458;2023-05-24T12:44:11;31.40;41.80
38488;DHT22;57384;51.986;4.458;2023-05-24T12:46:56;31.50;41.60
38488;DHT22;57384;51.986;4.458;2023-05-24T12:49:41;31.40;41.40
38488;DHT22;57384;51.986;4.458;2023-05-24T12:52:25;31.40;41.20
38488;DHT22;57384;51.986;4.458;2023-05-24T12:55:14;31.40;40.90
38488;DHT22;57384;51.986;4.458;2023-05-24T12:57:58;31.30;41.00
38488;DHT22;57384;51.986;4.458;2023-05-24T13:00:42;31.20;40.60
38488;DHT22;57384;51.986;4.458;2023-05-24T13:03:27;31.10;40.40
38488;DHT22;57384;51.986;4.458;2023-05-24T13:06:11;31.00;40.30
38488;DHT22;57384;51.986;4.458;2023-05-24T13:08:55;30.90;40.10
38488;DHT22;57384;51.986;4.458;2023-05-24T13:11:39;30.70;39.90
38488;DHT22;57384;51.986;4.458;2023-05-24T13:14:24;30.60;39.70
38488;DHT22;57384;51.986;4.458;2023-05-24T13:17:08;30.60;39.70
38488;DHT22;57384;51.986;4.458;2023-05-24T13:19:52;30.40;39.50
38488;DHT22;57384;51.986;4.458;2023-05-24T13:22:37;30.30;39.40
38488;DHT22;57384;51.986;4.458;2023-05-24T13:25:21;30.30;39.50
38488;DHT22;57384;51.986;4.458;2023-05-24T13:28:05;30.20;39.30
38488;DHT22;57384;51.986;4.458;2023-05-24T13:30:50;30.20;39.20
38488;DHT22;57384;51.986;4.458;2023-05-24T13:33:34;30.20;39.10
38488;DHT22;57384;51.986;4.458;2023-05-24T13:36:18;30.30;39.00
38488;DHT22;57384;51.986;4.458;2023-05-24T13:39:08;30.30;38.90
38488;DHT22;57384;51.986;4.458;2023-05-24T13:41:53;30.30;38.80
38488;DHT22;57384;51.986;4.458;2023-05-24T13:44:38;30.20;38.70
38488;DHT22;57384;51.986;4.458;2023-05-24T13:47:22;30.10;38.60
38488;DHT22;57384;51.986;4.458;2023-05-24T13:50:06;30.10;38.70
38488;DHT22;57384;51.986;4.458;2023-05-24T13:52:50;30.00;38.60
38488;DHT22;57384;51.986;4.458;2023-05-24T13:55:35;30.00;38.50
38488;DHT22;57384;51.986;4.458;2023-05-24T13:58:19;29.90;38.40
38488;DHT22;57384;51.986;4.458;2023-05-24T14:01:03;29.90;38.30
38488;DHT22;57384;51.986;4.458;2023-05-24T14:03:47;29.90;38.30
38488;DHT22;57384;51.986;4.458;2023-05-24T14:06:32;29.90;38.20
38488;DHT22;57384;51.986;4.458;2023-05-24T14:09:16;30.00;38.20
38488;DHT22;57384;51.986;4.458;2023-05-24T14:12:00;30.00;38.10
38488;DHT22;57384;51.986;4.458;2023-05-24T14:14:44;29.90;38.00
38488;DHT22;57384;51.986;4.458;2023-05-24T14:17:29;29.90;38.00
38488;DHT22;57384;51.986;4.458;2023-05-24T14:20:13;29.80;37.90
38488;DHT22;57384;51.986;4.458;2023-05-24T14:22:59;29.80;37.80
38488;DHT22;57384;51.986;4.458;2023-05-24T14:25:43;29.70;37.60
38488;DHT22;57384;51.986;4.458;2023-05-24T14:28:27;29.70;37.60
38488;DHT22;57384;51.986;4.458;2023-05-24T14:31:12;29.70;37.70
38488;DHT22;57384;51.986;4.458;2023-05-24T14:33:56;29.60;37.60
38488;DHT22;57384;51.986;4.458;2023-05-24T14:36:40;29.60;37.70
38488;DHT22;57384;51.986;4.458;2023-05-24T14:39:24;29.60;37.70
38488;DHT22;57384;51.986;4.458;2023-05-24T14:42:09;29.50;37.60
38488;DHT22;57384;51.986;4.458;2023-05-24T14:44:53;29.50;37.60
38488;DHT22;57384;51.986;4.458;2023-05-24T14:47:37;29.40;37.60
38488;DHT22;57384;51.986;4.458;2023-05-24T14:50:21;29.40;37.60
38488;DHT22;57384;51.986;4.458;2023-05-24T14:53:05;29.30;37.70
38488;DHT22;57384;51.986;4.458;2023-05-24T14:55:49;29.20;37.70
38488;DHT22;57384;51.986;4.458;2023-05-24T14:58:34;29.10;37.80
38488;DHT22;57384;51.986;4.458;2023-05-24T15:01:18;29.10;37.80
38488;DHT22;57384;51.986;4.458;2023-05-24T15:04:02;29.00;37.80
38488;DHT22;57384;51.986;4.458;2023-05-24T15:06:46;28.90;37.80
38488;DHT22;57384;51.986;4.458;2023-05-24T15:09:30;28.80;37.80
38488;DHT22;57384;51.986;4.458;2023-05-24T15:12:15;28.70;37.90
38488;DHT22;57384;51.986;4.458;2023-05-24T15:14:59;28.60;37.90
38488;DHT22;57384;51.986;4.458;2023-05-24T15:17:43;28.40;37.90
38488;DHT22;57384;51.986;4.458;2023-05-24T15:20:27;28.30;38.00
38488;DHT22;57384;51.986;4.458;2023-05-24T15:23:12;28.20;38.10
38488;DHT22;57384;51.986;4.458;2023-05-24T15:25:56;28.10;38.10
38488;DHT22;57384;51.986;4.458;2023-05-24T15:28:40;28.00;38.10
38488;DHT22;57384;51.986;4.458;2023-05-24T15:31:24;27.80;38.10
38488;DHT22;57384;51.986;4.458;2023-05-24T15:34:08;27.80;38.30
38488;DHT22;57384;51.986;4.458;2023-05-24T15:36:53;27.60;38.20
38488;DHT22;57384;51.986;4.458;2023-05-24T15:39:37;27.50;38.30
38488;DHT22;57384;51.986;4.458;2023-05-24T15:42:24;27.40;38.30
38488;DHT22;57384;51.986;4.458;2023-05-24T15:45:09;27.30;38.40
38488;DHT22;57384;51.986;4.458;2023-05-24T15:47:53;27.20;38.40
38488;DHT22;57384;51.986;4.458;2023-05-24T15:50:37;27.10;38.50
38488;DHT22;57384;51.986;4.458;2023-05-24T15:53:21;27.00;38.50
38488;DHT22;57384;51.986;4.458;2023-05-24T15:56:07;26.90;38.50
38488;DHT22;57384;51.986;4.458;2023-05-24T15:58:52;26.80;38.60
38488;DHT22;57384;51.986;4.458;2023-05-24T16:01:36;26.70;38.70
38488;DHT22;57384;51.986;4.458;2023-05-24T16:04:20;26.60;38.80
38488;DHT22;57384;51.986;4.458;2023-05-24T16:07:05;26.50;38.80
38488;DHT22;57384;51.986;4.458;2023-05-24T16:09:49;26.40;38.80
38488;DHT22;57384;51.986;4.458;2023-05-24T16:12:34;26.30;38.90
38488;DHT22;57384;51.986;4.458;2023-05-24T16:15:18;26.20;38.90
38488;DHT22;57384;51.986;4.458;2023-05-24T16:18:02;26.10;39.00
38488;DHT22;57384;51.986;4.458;2023-05-24T16:20:47;26.00;39.10
38488;DHT22;57384;51.986;4.458;2023-05-24T16:23:31;25.80;39.20
38488;DHT22;57384;51.986;4.458;2023-05-24T16:26:17;25.70;39.20
38488;DHT22;57384;51.986;4.458;2023-05-24T16:29:01;25.60;39.40
38488;DHT22;57384;51.986;4.458;2023-05-24T16:31:45;25.40;39.40
38488;DHT22;57384;51.986;4.458;2023-05-24T16:34:30;25.40;39.60
38488;DHT22;57384;51.986;4.458;2023-05-24T16:37:15;25.20;39.70
38488;DHT22;57384;51.986;4.458;2023-05-24T16:39:59;25.10;39.80
38488;DHT22;57384;51.986;4.458;2023-05-24T16:42:43;24.90;39.80
38488;DHT22;57384;51.986;4.458;2023-05-24T16:45:27;24.80;40.00
38488;DHT22;57384;51.986;4.458;2023-05-24T16:48:12;24.70;40.10
38488;DHT22;57384;51.986;4.458;2023-05-24T16:50:56;24.50;40.20
38488;DHT22;57384;51.986;4.458;2023-05-24T16:53:40;24.40;40.30
38488;DHT22;57384;51.986;4.458;2023-05-24T16:56:25;24.20;40.40
38488;DHT22;57384;51.986;4.458;2023-05-24T16:59:10;24.10;40.60
38488;DHT22;57384;51.986;4.458;2023-05-24T17:01:54;24.00;40.70
38488;DHT22;57384;51.986;4.458;2023-05-24T17:04:39;23.90;40.80
38488;DHT22;57384;51.986;4.458;2023-05-24T17:07:23;23.70;40.90
38488;DHT22;57384;51.986;4.458;2023-05-24T17:10:07;23.60;41.10
38488;DHT22;57384;51.986;4.458;2023-05-24T17:12:51;23.50;41.20
38488;DHT22;57384;51.986;4.458;2023-05-24T17:15:35;23.30;41.20
38488;DHT22;57384;51.986;4.458;2023-05-24T17:18:20;23.20;41.30
38488;DHT22;57384;51.986;4.458;2023-05-24T17:21:05;23.10;41.40
38488;DHT22;57384;51.986;4.458;2023-05-24T17:23:49;23.00;41.50
38488;DHT22;57384;51.986;4.458;2023-05-24T17:26:33;22.90;41.60
38488;DHT22;57384;51.986;4.458;2023-05-24T17:29:18;22.80;41.70
38488;DHT22;57384;51.986;4.458;2023-05-24T17:32:02;22.80;41.80
38488;DHT22;57384;51.986;4.458;2023-05-24T17:34:47;22.70;41.90
38488;DHT22;57384;51.986;4.458;2023-05-24T17:37:31;22.60;42.00
38488;DHT22;57384;51.986;4.458;2023-05-24T17:40:15;22.40;42.10